Time;durP1;ratioP1;P1;durP2;ratioP2;P2;SDS_P1;SDS_P2;PMS_P1;PMS_P2;Temp;Humidity;BMP_temperature;BMP_pressure;BME280_temperature;BME280_humidity;BME280_pressure;Samples;Min_cycle;Max_cycle;Signal;HPM_P1;HPM_P2
2023/01/23 00:01:13;;;;;;;22.10;11.67;;;2.50;97.70;;;;;;4706988;30;20250;-82
2023/01/23 00:03:38;;;;;;;22.37;11.90;;;2.50;97.70;;;;;;4723314;30;20065;-82
2023/01/23 00:06:09;;;;;;;21.17;11.40;;;2.40;97.70;;;;;;4725961;30;20061;-82
2023/01/23 00:08:35;;;;;;;23.60;12.60;;;2.40;98.00;;;;;;4707728;30;20056;-81
2023/01/23 00:11:10;;;;;;;36.43;12.53;;;2.50;97.70;;;;;;4725244;30;20051;-82
2023/01/23 00:13:37;;;;;;;21.57;11.70;;;2.50;98.00;;;;;;4722541;30;20056;-83
2023/01/23 00:16:07;;;;;;;30.20;12.73;;;2.50;97.70;;;;;;4719179;30;20533;-85
2023/01/23 00:18:33;;;;;;;24.50;11.57;;;2.50;97.70;;;;;;4723071;30;20056;-83
2023/01/23 00:21:03;;;;;;;22.40;11.90;;;2.50;97.70;;;;;;4719733;30;20057;-83
2023/01/23 00:23:28;;;;;;;22.57;12.47;;;2.50;97.70;;;;;;4722186;30;20047;-82
2023/01/23 00:25:54;;;;;;;22.53;11.13;;;2.50;97.70;;;;;;4719568;30;20049;-83
2023/01/23 00:28:19;;;;;;;21.83;11.40;;;2.50;97.70;;;;;;4706522;30;20131;-82
2023/01/23 00:30:45;;;;;;;24.43;11.23;;;2.50;97.70;;;;;;4720114;30;20193;-83
2023/01/23 00:33:11;;;;;;;24.97;11.90;;;2.50;97.80;;;;;;4721233;30;20429;-82
2023/01/23 00:35:36;;;;;;;17.73;10.63;;;2.50;97.80;;;;;;4720652;30;20445;-82
2023/01/23 00:38:02;;;;;;;37.23;12.10;;;2.50;97.80;;;;;;4720236;30;20060;-82
2023/01/23 00:40:27;;;;;;;27.60;11.37;;;2.50;97.80;;;;;;4720976;30;20044;-82
2023/01/23 00:42:53;;;;;;;40.70;12.50;;;2.50;97.80;;;;;;4702731;30;20075;-84
2023/01/23 00:45:18;;;;;;;21.20;11.50;;;2.50;97.80;;;;;;4723463;30;20059;-83
2023/01/23 00:47:44;;;;;;;18.77;11.00;;;2.50;97.80;;;;;;4723440;30;21210;-83
2023/01/23 00:50:10;;;;;;;20.17;10.70;;;2.50;97.80;;;;;;4725050;30;20060;-83
2023/01/23 00:52:36;;;;;;;21.63;10.60;;;2.50;98.10;;;;;;4707045;30;20947;-84
2023/01/23 00:55:02;;;;;;;23.60;10.67;;;2.50;97.80;;;;;;4710196;30;20146;-84
2023/01/23 00:57:29;;;;;;;20.00;10.90;;;2.50;97.80;;;;;;4723286;30;20171;-84
2023/01/23 00:59:54;;;;;;;19.90;10.30;;;2.50;97.80;;;;;;4723834;30;21119;-83
2023/01/23 01:02:20;;;;;;;25.47;10.67;;;2.50;97.70;;;;;;4709144;30;20056;-85
2023/01/23 01:04:45;;;;;;;20.47;10.23;;;2.50;97.70;;;;;;4706464;30;20056;-83
2023/01/23 01:07:11;;;;;;;19.97;10.17;;;2.50;97.70;;;;;;4726855;30;20479;-83
2023/01/23 01:09:36;;;;;;;28.40;11.13;;;2.50;97.70;;;;;;4724390;30;20054;-84
2023/01/23 01:12:02;;;;;;;17.10;10.40;;;2.50;97.70;;;;;;4708914;30;20048;-84
2023/01/23 01:14:28;;;;;;;23.67;11.23;;;2.50;97.70;;;;;;4725219;30;20084;-84
2023/01/23 01:16:53;;;;;;;19.50;10.33;;;2.60;97.70;;;;;;4707111;30;20159;-82
2023/01/23 01:19:19;;;;;;;21.30;10.50;;;2.60;97.70;;;;;;4720248;30;20056;-82
2023/01/23 01:21:45;;;;;;;21.17;11.20;;;2.60;97.70;;;;;;4720769;30;20080;-83
2023/01/23 01:24:10;;;;;;;19.37;10.73;;;2.60;97.70;;;;;;4707605;30;20059;-84
2023/01/23 01:26:36;;;;;;;18.77;11.50;;;2.60;97.70;;;;;;4721164;30;20091;-83
2023/01/23 01:29:02;;;;;;;21.20;11.20;;;2.60;97.70;;;;;;4719857;30;20222;-83
2023/01/23 01:31:28;;;;;;;24.43;12.27;;;2.60;98.00;;;;;;4704560;30;20052;-84
2023/01/23 01:33:54;;;;;;;21.63;11.33;;;2.60;97.60;;;;;;4720747;30;20487;-83
2023/01/23 01:36:22;;;;;;;23.47;11.70;;;2.60;97.60;;;;;;4718112;30;20478;-84
2023/01/23 01:38:48;;;;;;;20.17;11.50;;;2.60;97.50;;;;;;4705943;30;20064;-84
2023/01/23 01:41:15;;;;;;;22.47;11.40;;;2.60;97.50;;;;;;4720351;30;20041;-83
2023/01/23 01:43:41;;;;;;;24.70;11.70;;;2.60;97.50;;;;;;4716060;30;20138;-83
2023/01/23 01:46:20;;;;;;;23.60;12.10;;;2.60;97.60;;;;;;4721805;30;20060;-84
2023/01/23 01:49:03;;;;;;;21.42;11.80;;;2.60;97.50;;;;;;4700882;30;20756;-83
2023/01/23 01:51:37;;;;;;;25.77;11.93;;;2.60;97.50;;;;;;4717756;30;20086;-84
2023/01/23 01:54:05;;;;;;;22.53;12.17;;;2.60;97.60;;;;;;4720963;30;20107;-83
2023/01/23 01:56:36;;;;;;;24.17;12.73;;;2.60;97.60;;;;;;4708678;30;20079;-85
2023/01/23 01:59:02;;;;;;;22.90;11.73;;;2.60;97.60;;;;;;4719806;30;20137;-84
2023/01/23 02:01:27;;;;;;;24.53;12.57;;;2.60;97.60;;;;;;4705758;30;20489;-84
2023/01/23 02:03:54;;;;;;;22.03;12.80;;;2.60;97.50;;;;;;4723922;30;20039;-85
2023/01/23 02:06:19;;;;;;;19.47;11.73;;;2.60;97.60;;;;;;4722595;30;20139;-85
2023/01/23 02:09:06;;;;;;;32.93;13.47;;;2.60;97.60;;;;;;4706294;30;20140;-84
2023/01/23 02:11:32;;;;;;;25.20;12.27;;;2.60;97.60;;;;;;4720981;30;20135;-84
2023/01/23 02:13:57;;;;;;;21.13;11.90;;;2.60;97.60;;;;;;4706340;30;20220;-84
2023/01/23 02:16:29;;;;;;;19.00;12.37;;;2.60;97.60;;;;;;4708743;30;20482;-84
2023/01/23 02:18:59;;;;;;;19.17;12.00;;;2.60;97.60;;;;;;4723085;30;20391;-84
2023/01/23 02:21:26;;;;;;;21.30;12.43;;;2.60;97.60;;;;;;4708101;30;20065;-82
2023/01/23 02:24:18;;;;;;;23.53;12.13;;;2.50;97.60;;;;;;4705493;30;20438;-83
2023/01/23 02:26:45;;;;;;;24.57;12.77;;;2.60;97.60;;;;;;4702625;30;20087;-83
2023/01/23 02:29:13;;;;;;;20.50;12.13;;;2.50;97.60;;;;;;4717783;30;20056;-83
2023/01/23 02:31:41;;;;;;;20.02;11.43;;;2.60;97.60;;;;;;4712525;30;20496;-84
2023/01/23 02:34:10;;;;;;;22.63;12.40;;;2.50;97.60;;;;;;4697140;30;20052;-84
2023/01/23 02:36:35;;;;;;;24.48;11.98;;;2.50;97.60;;;;;;4713492;30;20056;-84
2023/01/23 02:39:12;;;;;;;23.67;12.57;;;2.50;97.60;;;;;;4697496;30;20060;-83
2023/01/23 02:41:47;;;;;;;30.53;14.13;;;2.50;97.60;;;;;;4700368;30;20569;-83
2023/01/23 02:44:27;;;;;;;24.13;12.53;;;2.50;97.60;;;;;;4716588;30;20063;-84
2023/01/23 02:46:55;;;;;;;22.60;12.80;;;2.60;97.70;;;;;;4711811;30;20156;-84
2023/01/23 02:49:21;;;;;;;22.70;13.83;;;2.60;97.60;;;;;;4693362;30;20269;-83
2023/01/23 02:51:47;;;;;;;20.47;12.80;;;2.50;97.60;;;;;;4699905;30;20044;-83
2023/01/23 02:54:14;;;;;;;21.00;13.30;;;2.60;97.60;;;;;;4713568;30;20426;-84
2023/01/23 02:56:41;;;;;;;26.10;12.83;;;2.50;97.90;;;;;;4702904;30;20053;-83
2023/01/23 03:01:51;;;;;;;23.07;12.53;;;2.50;97.60;;;;;;4719245;30;20062;-83
2023/01/23 03:04:17;;;;;;;24.70;13.37;;;2.50;97.60;;;;;;4717899;30;20600;-82
2023/01/23 03:06:42;;;;;;;19.73;12.07;;;2.50;97.60;;;;;;4723160;30;20546;-83
2023/01/23 03:09:11;;;;;;;21.13;13.10;;;2.50;97.60;;;;;;4723251;30;20044;-83
2023/01/23 03:11:39;;;;;;;22.48;12.88;;;2.50;97.60;;;;;;4704862;30;20573;-83
2023/01/23 03:14:07;;;;;;;24.00;12.70;;;2.50;97.60;;;;;;4722577;30;20071;-82
2023/01/23 03:16:33;;;;;;;27.45;14.60;;;2.50;97.60;;;;;;4704644;30;20076;-82
2023/01/23 03:19:04;;;;;;;22.80;12.87;;;2.50;97.60;;;;;;4722560;30;20401;-83
2023/01/23 03:21:31;;;;;;;26.77;13.90;;;2.50;97.60;;;;;;4719677;30;20044;-82
2023/01/23 03:23:57;;;;;;;25.43;13.53;;;2.50;97.60;;;;;;4721492;30;20052;-81
2023/01/23 03:26:23;;;;;;;24.77;13.20;;;2.50;97.60;;;;;;4707366;30;20044;-82
2023/01/23 03:31:33;;;;;;;20.83;13.83;;;2.50;97.60;;;;;;4721936;30;20092;-83
2023/01/23 03:33:58;;;;;;;26.37;13.07;;;2.50;97.60;;;;;;4720605;30;20470;-83
2023/01/23 03:36:24;;;;;;;24.07;13.40;;;2.50;97.70;;;;;;4708706;30;20068;-82
2023/01/23 03:41:33;;;;;;;22.17;13.73;;;2.50;97.70;;;;;;4720137;30;20056;-84
2023/01/23 03:43:59;;;;;;;25.87;14.73;;;2.50;97.70;;;;;;4707781;30;20513;-82
2023/01/23 03:46:25;;;;;;;25.53;14.43;;;2.50;97.70;;;;;;4705942;30;20557;-83
2023/01/23 03:48:50;;;;;;;23.97;14.80;;;2.50;97.80;;;;;;4706433;30;20507;-82
2023/01/23 03:51:16;;;;;;;26.17;15.70;;;2.40;97.70;;;;;;4704945;30;20506;-83
2023/01/23 03:53:41;;;;;;;24.20;14.33;;;2.40;97.70;;;;;;4721819;30;20052;-82
2023/01/23 03:56:07;;;;;;;24.53;14.20;;;2.50;97.80;;;;;;4722789;30;20513;-83
2023/01/23 03:58:32;;;;;;;27.13;14.67;;;2.40;97.80;;;;;;4704557;30;20049;-83
2023/01/23 04:01:01;;;;;;;25.60;14.70;;;2.40;97.80;;;;;;4723646;30;20052;-84
2023/01/23 04:03:27;;;;;;;25.20;14.80;;;2.40;97.80;;;;;;4719896;30;20136;-83
2023/01/23 04:05:59;;;;;;;24.47;15.23;;;2.40;97.80;;;;;;4719857;30;20083;-82
2023/01/23 04:08:24;;;;;;;29.03;15.27;;;2.40;97.80;;;;;;4721180;30;20095;-84
2023/01/23 04:10:50;;;;;;;24.13;14.80;;;2.40;97.80;;;;;;4705978;30;20052;-82
2023/01/23 04:13:16;;;;;;;25.73;14.73;;;2.40;97.80;;;;;;4720268;30;20411;-83
2023/01/23 04:15:41;;;;;;;26.33;15.53;;;2.40;98.10;;;;;;4724705;30;20076;-83
2023/01/23 04:18:07;;;;;;;25.20;14.70;;;2.40;97.80;;;;;;4721836;30;20055;-83
2023/01/23 04:20:33;;;;;;;25.83;14.80;;;2.40;97.90;;;;;;4720044;30;20060;-83
2023/01/23 04:22:58;;;;;;;27.63;15.27;;;2.40;97.80;;;;;;4724431;30;20056;-83
2023/01/23 04:25:24;;;;;;;27.83;15.47;;;2.40;97.80;;;;;;4724340;30;20109;-83
2023/01/23 04:27:49;;;;;;;29.50;16.23;;;2.40;97.80;;;;;;4710976;30;20072;-83
2023/01/23 04:30:15;;;;;;;29.97;15.50;;;2.40;97.80;;;;;;4708326;30;20861;-83
2023/01/23 04:32:40;;;;;;;31.90;15.60;;;2.40;97.80;;;;;;4725689;30;20052;-83
2023/01/23 04:35:06;;;;;;;27.60;14.93;;;2.40;97.80;;;;;;4707955;30;20278;-82
2023/01/23 04:37:32;;;;;;;23.13;14.63;;;2.40;97.80;;;;;;4708853;30;20139;-83
2023/01/23 04:39:57;;;;;;;42.23;15.93;;;2.40;97.90;;;;;;4725285;30;20434;-83
2023/01/23 04:42:23;;;;;;;29.23;15.70;;;2.40;97.90;;;;;;4722514;30;20047;-83
2023/01/23 04:44:49;;;;;;;26.10;15.07;;;2.40;97.90;;;;;;4726245;30;20037;-83
2023/01/23 04:47:14;;;;;;;23.63;14.57;;;2.40;97.90;;;;;;4720338;30;20561;-82
2023/01/23 04:49:41;;;;;;;28.27;15.93;;;2.40;97.90;;;;;;4722558;30;20447;-83
2023/01/23 04:52:06;;;;;;;22.13;14.80;;;2.40;97.90;;;;;;4719090;30;20060;-84
2023/01/23 04:54:32;;;;;;;26.63;15.70;;;2.40;97.90;;;;;;4719244;30;20495;-82
2023/01/23 04:56:58;;;;;;;24.17;15.00;;;2.40;98.00;;;;;;4720183;30;20044;-82
2023/01/23 04:59:23;;;;;;;25.17;15.07;;;2.30;97.90;;;;;;4721915;30;20060;-82
2023/01/23 05:01:49;;;;;;;26.57;15.90;;;2.40;97.90;;;;;;4722265;30;20139;-84
2023/01/23 05:04:14;;;;;;;26.53;15.40;;;2.30;97.90;;;;;;4721744;30;20080;-82
2023/01/23 05:06:40;;;;;;;28.07;15.33;;;2.30;98.00;;;;;;4719586;30;20139;-81
2023/01/23 05:09:06;;;;;;;25.67;14.33;;;2.30;98.00;;;;;;4721138;30;20544;-82
2023/01/23 05:11:32;;;;;;;26.67;15.23;;;2.30;98.00;;;;;;4705491;30;20056;-81
2023/01/23 05:13:57;;;;;;;24.53;14.70;;;2.30;98.00;;;;;;4717937;30;20041;-83
2023/01/23 05:16:23;;;;;;;24.80;14.57;;;2.30;98.00;;;;;;4721651;30;20047;-83
2023/01/23 05:18:49;;;;;;;38.17;15.60;;;2.40;98.00;;;;;;4720140;30;20084;-84
2023/01/23 05:21:14;;;;;;;21.07;14.13;;;2.30;98.00;;;;;;4720583;30;20045;-83
2023/01/23 05:23:40;;;;;;;27.33;14.43;;;2.30;98.00;;;;;;4720694;30;20053;-81
2023/01/23 05:26:05;;;;;;;24.43;14.43;;;2.40;97.90;;;;;;4689562;30;20604;-82
2023/01/23 05:28:31;;;;;;;24.10;13.93;;;2.30;98.00;;;;;;4719258;30;20534;-82
2023/01/23 05:30:56;;;;;;;26.50;14.57;;;2.40;98.00;;;;;;4719031;30;20036;-82
2023/01/23 05:33:22;;;;;;;26.80;14.47;;;2.40;97.90;;;;;;4718779;30;20103;-81
2023/01/23 05:35:47;;;;;;;24.40;13.47;;;2.40;98.00;;;;;;4722198;30;20079;-82
2023/01/23 05:38:13;;;;;;;24.33;13.20;;;2.40;98.00;;;;;;4690142;30;20049;-83
2023/01/23 05:40:39;;;;;;;25.67;13.80;;;2.40;98.00;;;;;;4705924;30;20380;-82
2023/01/23 05:43:05;;;;;;;26.13;14.10;;;2.40;98.00;;;;;;4720022;30;20486;-83
2023/01/23 05:45:31;;;;;;;21.10;13.40;;;2.40;98.00;;;;;;4703430;30;20508;-83
2023/01/23 05:47:56;;;;;;;28.27;13.40;;;2.40;98.00;;;;;;4702223;30;20630;-83
2023/01/23 05:50:23;;;;;;;29.07;13.37;;;2.40;98.00;;;;;;4721259;30;20064;-83
2023/01/23 05:52:49;;;;;;;27.83;14.40;;;2.40;98.00;;;;;;4723627;30;20060;-84
2023/01/23 05:55:14;;;;;;;25.77;13.67;;;2.30;98.30;;;;;;4709065;30;20052;-84
2023/01/23 05:57:40;;;;;;;22.47;13.77;;;2.40;98.00;;;;;;4704369;30;20068;-82
2023/01/23 06:00:08;;;;;;;22.70;14.10;;;2.30;98.00;;;;;;4722673;30;20052;-83
2023/01/23 06:02:34;;;;;;;24.80;13.63;;;2.30;98.00;;;;;;4700643;30;20045;-83
2023/01/23 06:04:59;;;;;;;20.93;13.70;;;2.30;98.00;;;;;;4709240;30;20057;-83
2023/01/23 06:07:25;;;;;;;23.67;13.97;;;2.30;98.00;;;;;;4722742;30;20053;-84
2023/01/23 06:09:51;;;;;;;24.27;14.27;;;2.30;98.00;;;;;;4720765;30;20079;-83
2023/01/23 06:12:17;;;;;;;23.23;13.87;;;2.20;97.90;;;;;;4707609;30;20269;-84
2023/01/23 06:14:42;;;;;;;26.83;14.33;;;2.20;97.90;;;;;;4717593;30;20044;-84
2023/01/23 06:17:10;;;;;;;22.60;13.53;;;2.20;98.00;;;;;;4703339;30;20102;-83
2023/01/23 06:19:36;;;;;;;23.00;13.67;;;2.20;98.00;;;;;;4702757;30;20079;-83
2023/01/23 06:22:01;;;;;;;26.43;14.30;;;2.20;98.00;;;;;;4718973;30;20789;-84
2023/01/23 06:24:27;;;;;;;25.87;15.03;;;2.20;98.00;;;;;;4718780;30;20169;-83
2023/01/23 06:26:52;;;;;;;28.27;14.43;;;2.20;98.00;;;;;;4717425;30;20080;-84
2023/01/23 06:29:18;;;;;;;30.23;14.60;;;2.20;98.00;;;;;;4700943;30;21165;-83
2023/01/23 06:31:44;;;;;;;24.73;15.47;;;2.20;98.10;;;;;;4706460;30;20062;-83
2023/01/23 06:34:10;;;;;;;25.67;14.73;;;2.20;98.10;;;;;;4718398;30;20098;-82
2023/01/23 06:36:36;;;;;;;26.27;15.67;;;2.20;98.10;;;;;;4717478;30;20056;-83
2023/01/23 06:39:02;;;;;;;30.33;15.23;;;2.20;98.10;;;;;;4718326;30;21853;-84
2023/01/23 06:41:27;;;;;;;26.67;14.67;;;2.20;98.20;;;;;;4716880;30;21846;-83
2023/01/23 06:43:54;;;;;;;32.73;14.47;;;2.20;98.20;;;;;;4721665;30;20159;-85
2023/01/23 06:46:19;;;;;;;28.83;15.77;;;2.20;98.20;;;;;;4702911;30;20060;-83
2023/01/23 06:48:45;;;;;;;26.30;14.13;;;2.20;98.20;;;;;;4699588;30;20454;-83
2023/01/23 06:51:10;;;;;;;25.90;14.90;;;2.20;98.20;;;;;;4717157;30;20048;-83
2023/01/23 06:53:36;;;;;;;29.07;15.40;;;2.20;98.20;;;;;;4714428;30;20049;-82
2023/01/23 06:56:06;;;;;;;26.10;15.00;;;2.20;98.20;;;;;;4718041;30;20758;-81
2023/01/23 06:58:33;;;;;;;29.00;15.17;;;2.20;98.20;;;;;;4698985;30;20628;-81
2023/01/23 07:01:06;;;;;;;27.50;14.87;;;2.20;98.30;;;;;;4716165;30;20068;-81
2023/01/23 07:03:32;;;;;;;27.00;14.70;;;2.20;98.30;;;;;;4698974;30;20169;-78
2023/01/23 07:06:01;;;;;;;29.20;14.93;;;2.20;98.20;;;;;;4719954;30;20110;-81
2023/01/23 07:08:27;;;;;;;23.67;14.73;;;2.20;98.20;;;;;;4718254;30;20096;-82
2023/01/23 07:10:53;;;;;;;24.53;13.87;;;2.30;98.30;;;;;;4719362;30;20053;-82
2023/01/23 07:13:19;;;;;;;28.37;15.07;;;2.30;98.30;;;;;;4714768;30;20045;-79
2023/01/23 07:15:46;;;;;;;24.10;13.53;;;2.30;98.30;;;;;;4701441;30;20061;-81
2023/01/23 07:18:11;;;;;;;23.83;14.13;;;2.30;98.20;;;;;;4724850;30;20048;-82
2023/01/23 07:20:37;;;;;;;24.77;13.60;;;2.30;98.20;;;;;;4718234;30;20068;-81
2023/01/23 07:23:02;;;;;;;24.53;13.53;;;2.30;98.10;;;;;;4704148;30;20049;-80
2023/01/23 07:25:29;;;;;;;23.47;14.10;;;2.30;98.10;;;;;;4716737;30;20057;-80
2023/01/23 07:27:55;;;;;;;23.60;13.17;;;2.30;98.10;;;;;;4690534;30;20052;-82
2023/01/23 07:30:20;;;;;;;24.97;14.33;;;2.30;98.10;;;;;;4700205;30;20075;-79
2023/01/23 07:32:46;;;;;;;20.83;14.00;;;2.30;98.10;;;;;;4704640;30;20040;-82
2023/01/23 07:35:12;;;;;;;20.07;13.53;;;2.30;98.10;;;;;;4719074;30;20980;-81
2023/01/23 07:37:38;;;;;;;21.30;13.13;;;2.30;98.00;;;;;;4715075;30;20064;-82
2023/01/23 07:40:04;;;;;;;20.30;12.67;;;2.30;98.00;;;;;;4719413;30;20079;-81
2023/01/23 07:42:29;;;;;;;21.33;12.93;;;2.40;98.00;;;;;;4714710;30;20137;-81
2023/01/23 07:44:55;;;;;;;23.10;12.80;;;2.30;98.00;;;;;;4721543;30;20478;-82
2023/01/23 07:47:20;;;;;;;19.47;13.10;;;2.40;98.00;;;;;;4701674;30;20111;-77
2023/01/23 07:49:46;;;;;;;21.20;13.40;;;2.40;97.90;;;;;;4697223;30;20049;-80
2023/01/23 07:52:12;;;;;;;23.67;13.70;;;2.40;97.90;;;;;;4704518;30;20040;-81
2023/01/23 07:54:37;;;;;;;25.47;14.40;;;2.30;97.80;;;;;;4690108;30;20094;-77
2023/01/23 07:57:03;;;;;;;26.60;14.80;;;2.40;97.80;;;;;;4721853;30;20132;-81
2023/01/23 07:59:28;;;;;;;21.77;13.53;;;2.40;97.80;;;;;;4705194;30;20053;-81
2023/01/23 08:01:54;;;;;;;23.03;13.47;;;2.40;97.80;;;;;;4706010;30;20072;-80
2023/01/23 08:04:20;;;;;;;20.43;12.90;;;2.40;97.80;;;;;;4706850;30;20793;-82
2023/01/23 08:06:45;;;;;;;18.20;13.10;;;2.40;97.70;;;;;;4707801;30;20037;-77
2023/01/23 08:09:11;;;;;;;22.33;13.33;;;2.40;97.70;;;;;;4721982;30;20079;-80
2023/01/23 08:11:37;;;;;;;21.67;11.83;;;2.40;97.60;;;;;;4705419;30;20921;-82
2023/01/23 08:14:03;;;;;;;18.80;11.97;;;2.40;97.60;;;;;;4705446;30;20063;-81
2023/01/23 08:16:29;;;;;;;20.60;12.53;;;2.40;97.60;;;;;;4689450;30;20858;-78
2023/01/23 08:18:56;;;;;;;19.17;11.77;;;2.40;97.60;;;;;;4720303;30;20045;-82
2023/01/23 08:21:22;;;;;;;17.60;11.83;;;2.50;97.60;;;;;;4718687;30;20048;-81
2023/01/23 08:23:47;;;;;;;20.97;12.70;;;2.50;97.60;;;;;;4706519;30;20029;-83
2023/01/23 08:26:15;;;;;;;21.30;12.30;;;2.50;97.50;;;;;;4702599;30;20056;-81
2023/01/23 08:28:41;;;;;;;20.23;11.90;;;2.50;97.50;;;;;;4726668;30;20049;-81
2023/01/23 08:31:09;;;;;;;18.27;11.70;;;2.50;97.30;;;;;;4710007;30;20064;-81
2023/01/23 08:33:36;;;;;;;19.70;12.33;;;2.50;97.30;;;;;;4709450;30;20064;-79
2023/01/23 08:36:03;;;;;;;20.33;11.77;;;2.50;97.20;;;;;;4708137;30;20052;-78
2023/01/23 08:38:30;;;;;;;18.87;12.57;;;2.50;97.20;;;;;;4722676;30;20052;-79
2023/01/23 08:40:59;;;;;;;23.87;11.50;;;2.50;97.10;;;;;;4723682;30;20566;-79
2023/01/23 08:43:25;;;;;;;19.93;11.03;;;2.50;97.10;;;;;;4717021;30;20905;-79
2023/01/23 08:45:55;;;;;;;19.57;11.93;;;2.50;97.00;;;;;;4707225;30;20052;-80
2023/01/23 08:48:22;;;;;;;18.03;11.20;;;2.60;97.00;;;;;;4707431;30;20063;-74
2023/01/23 08:50:48;;;;;;;17.83;11.90;;;2.60;97.00;;;;;;4723628;30;20048;-79
2023/01/23 08:53:14;;;;;;;18.10;11.47;;;2.60;97.10;;;;;;4723597;30;20067;-79
2023/01/23 08:55:40;;;;;;;15.60;10.27;;;2.60;97.00;;;;;;4722951;30;20091;-76
2023/01/23 08:58:08;;;;;;;14.47;10.23;;;2.70;97.00;;;;;;4722698;30;20132;-79
2023/01/23 09:00:33;;;;;;;16.47;10.93;;;2.70;96.90;;;;;;4723333;30;20454;-79
2023/01/23 09:03:03;;;;;;;14.90;9.53;;;2.80;96.90;;;;;;4720468;30;20136;-76
2023/01/23 09:05:30;;;;;;;19.13;10.33;;;2.80;96.80;;;;;;4708382;30;20060;-80
2023/01/23 09:07:56;;;;;;;16.53;10.57;;;2.80;96.70;;;;;;4722379;30;20135;-78
2023/01/23 09:10:22;;;;;;;14.40;10.30;;;2.80;96.70;;;;;;4708082;30;20113;-76
2023/01/23 09:12:52;;;;;;;19.70;10.90;;;2.90;96.70;;;;;;4707001;30;20504;-79
2023/01/23 09:15:18;;;;;;;17.47;10.93;;;2.90;96.70;;;;;;4721048;30;20056;-78
2023/01/23 09:17:44;;;;;;;14.03;10.40;;;3.00;96.70;;;;;;4706679;30;20066;-78
2023/01/23 09:20:10;;;;;;;14.07;9.70;;;2.90;96.60;;;;;;4710101;30;20098;-79
2023/01/23 09:22:36;;;;;;;14.87;10.13;;;3.00;96.70;;;;;;4703513;30;20501;-78
2023/01/23 09:25:02;;;;;;;13.82;10.48;;;3.00;96.60;;;;;;4698184;30;20132;-76
2023/01/23 09:27:27;;;;;;;12.90;9.53;;;3.10;96.50;;;;;;4707924;30;20799;-80
2023/01/23 09:29:54;;;;;;;15.20;10.03;;;3.10;96.40;;;;;;4706869;30;20764;-79
2023/01/23 09:32:19;;;;;;;15.47;10.37;;;3.10;96.00;;;;;;4695481;30;20117;-79
2023/01/23 09:34:47;;;;;;;16.07;11.07;;;3.10;96.10;;;;;;4705071;30;20052;-77
2023/01/23 09:37:16;;;;;;;15.73;10.95;;;3.10;96.20;;;;;;4719555;30;20067;-80
2023/01/23 09:39:42;;;;;;;;;;;3.10;96.20;;;;;;4722304;30;20507;-80
2023/01/23 09:42:22;;;;;;;13.77;9.97;;;3.10;96.10;;;;;;4724782;30;20403;-81
2023/01/23 09:44:54;;;;;;;14.57;10.17;;;3.10;96.20;;;;;;4720556;30;20056;-78
2023/01/23 09:47:27;;;;;;;14.00;9.83;;;3.20;96.30;;;;;;4705940;30;20100;-74
2023/01/23 09:50:05;;;;;;;14.93;9.77;;;3.20;96.10;;;;;;4710418;30;20118;-76
2023/01/23 09:52:40;;;;;;;14.38;9.98;;;3.20;95.80;;;;;;4704306;30;20053;-85
2023/01/23 09:55:17;;;;;;;12.63;10.17;;;3.20;95.80;;;;;;4723989;30;20065;-83
2023/01/23 09:57:51;;;;;;;13.90;10.40;;;3.20;95.90;;;;;;4691823;30;20060;-85
2023/01/23 10:00:29;;;;;;;16.52;11.10;;;3.30;96.00;;;;;;4704046;30;20110;-80
2023/01/23 10:02:56;;;;;;;12.88;10.02;;;3.30;96.00;;;;;;4706199;30;20145;-80
2023/01/23 10:05:35;;;;;;;14.70;10.17;;;3.40;96.00;;;;;;4720117;30;20057;-79
2023/01/23 10:08:26;;;;;;;17.03;10.60;;;3.40;95.70;;;;;;4723190;30;20048;-79
2023/01/23 10:10:57;;;;;;;15.10;10.13;;;3.40;95.80;;;;;;4708051;30;20084;-79
2023/01/23 10:13:53;;;;;;;15.57;11.17;;;3.50;95.60;;;;;;4707499;30;20053;-80
2023/01/23 10:16:51;;;;;;;15.63;11.00;;;3.50;95.70;;;;;;4721223;30;20053;-78
2023/01/23 10:19:42;;;;;;;15.02;10.77;;;3.50;95.30;;;;;;4667975;30;20584;-84
2023/01/23 10:22:33;;;;;;;20.05;11.65;;;3.60;95.40;;;;;;4706144;30;20049;-84
2023/01/23 10:25:01;;;;;;;15.60;11.50;;;3.60;95.30;;;;;;4704917;30;20103;-79
2023/01/23 10:27:34;;;;;;;19.25;11.95;;;3.60;95.30;;;;;;4703924;30;20054;-76
2023/01/23 10:30:18;;;;;;;19.93;13.23;;;3.60;95.20;;;;;;4719305;30;20132;-80
2023/01/23 10:32:54;;;;;;;18.33;12.95;;;3.60;95.00;;;;;;4706160;30;20053;-78
2023/01/23 10:35:39;;;;;;;20.27;12.98;;;3.70;95.10;;;;;;4706507;30;20109;-77
2023/01/23 10:38:36;;;;;;;24.25;14.82;;;3.70;94.70;;;;;;4706432;30;20052;-80
2023/01/23 10:41:14;;;;;;;30.90;14.70;;;3.70;94.90;;;;;;4719029;30;20065;-79
2023/01/23 10:43:51;;;;;;;20.27;12.63;;;3.60;94.90;;;;;;4720729;30;20566;-78
2023/01/23 10:46:30;;;;;;;17.83;12.48;;;3.60;95.00;;;;;;4708628;30;20064;-80
2023/01/23 10:48:57;;;;;;;;;;;3.60;95.00;;;;;;4716746;30;20063;-80
2023/01/23 10:51:26;;;;;;;18.05;12.63;;;3.70;94.90;;;;;;4706966;30;19975;-77
2023/01/23 10:54:13;;;;;;;16.17;12.50;;;3.70;95.10;;;;;;4721135;30;20090;-80
2023/01/23 10:57:25;;;;;;;17.85;12.07;;;3.80;95.10;;;;;;4707456;30;20047;-80
2023/01/23 11:00:00;;;;;;;78.10;41.50;;;3.80;94.90;;;;;;4652286;30;20058;-79
2023/01/23 11:02:27;;;;;;;42.08;23.27;;;3.70;94.80;;;;;;4665894;30;20069;-79
2023/01/23 11:04:53;;;;;;;39.05;22.15;;;3.80;95.10;;;;;;4696227;30;20072;-79
2023/01/23 11:07:24;;;;;;;19.52;12.65;;;3.80;94.90;;;;;;4721594;30;20056;-80
2023/01/23 11:09:57;;;;;;;29.58;20.13;;;3.80;94.80;;;;;;4720631;30;21332;-80
2023/01/23 11:12:34;;;;;;;18.85;11.23;;;3.80;94.70;;;;;;4703549;30;20087;-79
2023/01/23 11:15:26;;;;;;;16.13;12.13;;;3.80;94.60;;;;;;4690221;30;20049;-80
2023/01/23 11:17:54;;;;;;;19.15;12.63;;;3.90;94.60;;;;;;4721631;30;20134;-79
2023/01/23 11:20:27;;;;;;;17.50;12.10;;;3.90;94.70;;;;;;4702233;30;20156;-80
2023/01/23 11:23:12;;;;;;;35.35;21.80;;;3.90;94.60;;;;;;4719325;30;20088;-79
2023/01/23 11:25:40;;;;;;;16.65;12.15;;;3.90;94.50;;;;;;4722021;30;20048;-80
2023/01/23 11:28:32;;;;;;;17.73;12.48;;;4.00;94.70;;;;;;4723244;30;20102;-80
2023/01/23 11:31:13;;;;;;;18.08;11.52;;;4.00;94.60;;;;;;4724240;30;20063;-79
2023/01/23 11:33:51;;;;;;;19.77;12.70;;;4.00;94.40;;;;;;4724376;30;20057;-80
2023/01/23 11:36:16;;;;;;;18.40;14.00;;;4.10;94.60;;;;;;4705667;30;20118;-79
2023/01/23 11:39:22;;;;;;;18.63;13.77;;;4.10;94.40;;;;;;4709604;30;20056;-80
2023/01/23 11:41:48;;;;;;;24.98;17.08;;;4.10;94.10;;;;;;4720343;30;20686;-79
2023/01/23 11:44:20;;;;;;;19.98;12.30;;;4.10;94.20;;;;;;4709992;30;20048;-78
2023/01/23 11:47:04;;;;;;;17.92;12.10;;;4.10;94.30;;;;;;4718464;30;20056;-78
2023/01/23 11:49:45;;;;;;;16.60;12.40;;;4.10;94.40;;;;;;4722423;30;20052;-78
2023/01/23 11:52:30;;;;;;;18.63;12.77;;;4.10;94.20;;;;;;4709035;30;20052;-78
2023/01/23 11:55:07;;;;;;;20.20;11.90;;;4.20;94.30;;;;;;4717879;30;20057;-76
2023/01/23 11:57:38;;;;;;;18.63;13.55;;;4.10;94.30;;;;;;4711675;30;20073;-77
2023/01/23 12:00:25;;;;;;;20.50;13.23;;;4.10;94.30;;;;;;4725102;30;20130;-78
2023/01/23 12:03:09;;;;;;;18.02;13.13;;;4.10;94.20;;;;;;4717649;30;20055;-79
2023/01/23 12:05:50;;;;;;;20.83;13.40;;;4.20;94.30;;;;;;4702570;30;20088;-78
2023/01/23 12:08:25;;;;;;;20.80;14.20;;;4.10;94.20;;;;;;4717550;30;20468;-79
2023/01/23 12:11:12;;;;;;;20.48;15.23;;;4.10;94.30;;;;;;4717733;30;20098;-78
2023/01/23 12:13:50;;;;;;;23.35;15.38;;;4.10;94.30;;;;;;4707312;30;20059;-77
2023/01/23 12:16:46;;;;;;;21.60;15.97;;;4.10;94.30;;;;;;4721129;30;20064;-79
2023/01/23 12:19:33;;;;;;;24.70;16.80;;;4.10;94.30;;;;;;4721680;30;20040;-79
2023/01/23 12:22:20;;;;;;;23.73;16.00;;;4.10;94.20;;;;;;4725371;30;20049;-80
2023/01/23 12:25:15;;;;;;;22.63;16.13;;;4.10;94.40;;;;;;4722741;30;20086;-77
2023/01/23 12:27:46;;;;;;;25.38;17.10;;;4.10;94.20;;;;;;4671344;30;20059;-80
2023/01/23 12:30:30;;;;;;;24.95;16.63;;;4.00;94.30;;;;;;4723596;30;20431;-75
2023/01/23 12:33:33;;;;;;;22.88;15.63;;;4.00;94.20;;;;;;4714020;30;20929;-80
2023/01/23 12:36:32;;;;;;;26.55;16.40;;;4.00;94.10;;;;;;4723293;30;20053;-84
2023/01/23 12:39:01;;;;;;;;;;;4.00;94.10;;;;;;4709049;30;20060;-75
2023/01/23 12:41:37;;;;;;;23.92;16.42;;;4.00;94.10;;;;;;4721586;30;20057;-77
2023/01/23 12:44:32;;;;;;;23.02;16.05;;;4.00;94.40;;;;;;4710105;30;20063;-77
2023/01/23 12:47:07;;;;;;;21.58;15.55;;;4.10;94.30;;;;;;4708162;30;20075;-78
2023/01/23 12:49:49;;;;;;;21.35;14.98;;;4.10;94.40;;;;;;4722155;30;20151;-79
2023/01/23 12:52:22;;;;;;;21.30;16.50;;;4.00;94.30;;;;;;4724313;30;20510;-77
2023/01/23 12:55:19;;;;;;;23.95;15.20;;;4.00;94.20;;;;;;4706609;30;20037;-79
2023/01/23 12:57:50;;;;;;;20.55;14.90;;;4.10;94.20;;;;;;4708031;30;20092;-79
2023/01/23 13:00:31;;;;;;;20.45;14.30;;;4.00;94.10;;;;;;4706884;30;20049;-80